createdAt,value
2019-03-25T00:03:47.411Z,2.02
2019-03-25T00:09:13.523Z,1.90
2019-03-25T00:14:38.102Z,1.93
2019-03-25T00:20:02.673Z,2.03
2019-03-25T00:25:27.911Z,2.11
2019-03-25T00:30:52.601Z,2.23
2019-03-25T00:36:16.949Z,2.26
2019-03-25T00:41:41.820Z,2.24
2019-03-25T00:47:06.745Z,2.12
2019-03-25T00:52:30.943Z,2.03
2019-03-25T00:57:56.397Z,1.94
2019-03-25T01:03:21.032Z,1.95
2019-03-25T01:08:46.309Z,2.01
2019-03-25T01:14:10.584Z,2.15
2019-03-25T01:19:35.644Z,2.27
2019-03-25T01:25:02.355Z,2.38
2019-03-25T01:30:27.820Z,2.36
2019-03-25T01:35:52.773Z,2.38
2019-03-25T01:41:17.824Z,2.40
2019-03-25T01:46:43.266Z,2.37
2019-03-25T01:52:08.524Z,2.29
2019-03-25T01:57:33.994Z,2.28
2019-03-25T02:02:59.169Z,2.29
2019-03-25T02:08:24.062Z,2.25
2019-03-25T02:13:48.466Z,2.14
2019-03-25T02:19:12.788Z,2.20
2019-03-25T02:24:37.818Z,2.25
2019-03-25T02:30:02.093Z,2.34
2019-03-25T02:35:26.552Z,2.41
2019-03-25T02:40:52.236Z,2.43
2019-03-25T02:46:17.162Z,2.41
2019-03-25T02:51:42.584Z,2.33
2019-03-25T02:57:07.516Z,2.23
2019-03-25T03:02:32.435Z,2.16
2019-03-25T03:07:57.966Z,2.06
2019-03-25T03:13:23.248Z,1.95
2019-03-25T03:18:47.464Z,1.96
2019-03-25T03:24:12.745Z,2.04
2019-03-25T03:29:37.202Z,2.11
2019-03-25T03:35:02.182Z,2.20
2019-03-25T03:40:26.965Z,2.31
2019-03-25T03:45:51.796Z,2.33
2019-03-25T03:51:16.745Z,2.16
2019-03-25T03:56:41.815Z,2.09
2019-03-25T04:02:06.551Z,2.31
2019-03-25T04:07:30.996Z,2.41
2019-03-25T04:12:55.956Z,2.33
2019-03-25T04:18:20.189Z,2.30
2019-03-25T04:23:46.434Z,2.27
2019-03-25T04:29:11.343Z,2.24
2019-03-25T04:34:36.682Z,2.15
2019-03-25T04:40:00.836Z,2.17
2019-03-25T04:45:26.582Z,2.28
2019-03-25T04:50:50.930Z,2.45
2019-03-25T04:56:15.951Z,2.60
2019-03-25T05:01:41.291Z,2.77
2019-03-25T05:07:05.463Z,2.98
2019-03-25T05:12:29.766Z,3.06
2019-03-25T05:17:55.015Z,3.16
2019-03-25T05:23:20.430Z,3.27
2019-03-25T05:28:45.001Z,3.36
2019-03-25T05:34:09.339Z,3.46
2019-03-25T05:39:34.644Z,3.52
2019-03-25T05:45:00.071Z,3.60
2019-03-25T05:50:25.290Z,3.65
2019-03-25T05:55:50.945Z,3.82
2019-03-25T06:01:15.726Z,3.83
2019-03-25T06:06:40.125Z,3.67
2019-03-25T06:12:04.510Z,3.40
2019-03-25T06:17:30.122Z,3.17
2019-03-25T06:22:55.230Z,3.27
2019-03-25T06:28:20.553Z,3.05
2019-03-25T06:33:45.065Z,2.42
2019-03-25T06:39:09.238Z,2.23
2019-03-25T06:44:33.737Z,2.11
2019-03-25T06:49:58.721Z,2.00
2019-03-25T06:55:24.291Z,1.75
2019-03-25T07:00:49.534Z,1.64
2019-03-25T07:06:14.896Z,1.52
2019-03-25T07:11:40.354Z,1.26
2019-03-25T07:17:05.183Z,0.93
2019-03-25T07:22:29.345Z,0.77
2019-03-25T07:27:54.679Z,0.70
2019-03-25T07:33:19.142Z,0.79
2019-03-25T07:38:44.304Z,0.94
2019-03-25T07:44:08.930Z,1.08
2019-03-25T07:49:33.801Z,1.29
2019-03-25T07:54:58.975Z,1.52
2019-03-25T08:00:24.447Z,1.60
2019-03-25T08:05:49.087Z,1.83
2019-03-25T08:11:13.533Z,2.06
2019-03-25T08:16:38.571Z,2.46
2019-03-25T08:22:03.802Z,2.77
2019-03-25T08:27:29.142Z,2.91
2019-03-25T08:32:54.385Z,3.06
2019-03-25T08:38:19.677Z,3.31
2019-03-25T08:43:44.994Z,3.31
2019-03-25T08:49:11.936Z,3.38
2019-03-25T08:54:37.820Z,3.47
2019-03-25T09:00:02.388Z,3.56
2019-03-25T09:05:28.574Z,3.60
2019-03-25T09:10:53.845Z,3.57
2019-03-25T09:16:18.780Z,3.86
2019-03-25T09:21:43.002Z,4.12
2019-03-25T09:27:07.936Z,4.10
2019-03-25T09:32:33.492Z,4.25
2019-03-25T09:37:58.699Z,4.46
2019-03-25T09:43:23.967Z,4.84
2019-03-25T09:48:49.157Z,5.09
2019-03-25T09:54:13.669Z,5.21
2019-03-25T09:59:38.639Z,5.63
2019-03-25T10:05:03.447Z,6.09
2019-03-25T10:10:28.678Z,6.59
2019-03-25T10:15:53.307Z,6.86
2019-03-25T10:21:18.554Z,6.44
2019-03-25T10:26:44.035Z,6.02
2019-03-25T10:32:08.703Z,6.30
2019-03-25T10:37:33.377Z,7.45
2019-03-25T10:42:57.679Z,7.09
2019-03-25T10:48:23.372Z,5.63
2019-03-25T10:53:47.624Z,6.00
2019-03-25T10:59:13.175Z,6.45
2019-03-25T11:04:38.449Z,6.47
2019-03-25T11:10:03.586Z,6.66
2019-03-25T11:15:28.006Z,6.84
2019-03-25T11:20:53.447Z,8.45
2019-03-25T11:26:17.936Z,9.62
2019-03-25T11:31:42.080Z,8.96
2019-03-25T11:37:07.313Z,8.36
2019-03-25T11:42:32.297Z,7.99
2019-03-25T11:47:57.090Z,7.01
2019-03-25T11:53:21.643Z,7.95
2019-03-25T11:58:46.284Z,9.35
2019-03-25T12:04:11.261Z,9.77
2019-03-25T12:09:36.444Z,10.74
2019-03-25T12:15:02.125Z,10.62
2019-03-25T12:20:27.301Z,10.87
2019-03-25T12:25:51.722Z,11.94
2019-03-25T12:31:17.248Z,12.94
2019-03-25T12:36:42.440Z,12.28
2019-03-25T12:42:07.153Z,10.40
2019-03-25T12:47:31.598Z,8.06
2019-03-25T12:52:56.769Z,7.90
2019-03-25T12:58:22.377Z,10.73
2019-03-25T13:03:47.229Z,11.15
2019-03-25T13:09:12.357Z,11.61
2019-03-25T13:14:36.738Z,10.99
2019-03-25T13:20:01.925Z,10.52
2019-03-25T13:25:26.963Z,9.86
2019-03-25T13:30:52.415Z,8.57
2019-03-25T13:36:17.408Z,7.34
2019-03-25T13:41:42.633Z,6.96
2019-03-25T13:47:07.521Z,8.53
2019-03-25T13:52:33.059Z,8.68
2019-03-25T13:57:58.060Z,8.40
2019-03-25T14:03:22.334Z,7.86
2019-03-25T14:08:47.682Z,7.78
2019-03-25T14:14:12.086Z,6.53
2019-03-25T14:19:37.064Z,4.26
2019-03-25T14:25:01.300Z,4.87
2019-03-25T14:30:26.187Z,5.84
2019-03-25T14:35:50.954Z,6.21
2019-03-25T14:41:16.531Z,6.12
2019-03-25T14:46:41.418Z,6.19
2019-03-25T14:52:05.682Z,6.51
2019-03-25T14:57:30.483Z,9.86
2019-03-25T15:02:54.915Z,11.06
2019-03-25T15:08:20.089Z,12.07
2019-03-25T15:13:44.286Z,11.78
2019-03-25T15:19:09.796Z,9.69
2019-03-25T15:24:34.340Z,9.76
2019-03-25T15:29:59.276Z,9.34
2019-03-25T15:35:23.660Z,8.12
2019-03-25T15:40:48.685Z,8.25
2019-03-25T15:46:14.053Z,9.41
2019-03-25T15:51:39.548Z,9.52
2019-03-25T15:57:04.615Z,8.41
2019-03-25T16:02:29.911Z,8.28
2019-03-25T16:07:54.971Z,7.51
2019-03-25T16:13:20.387Z,8.16
2019-03-25T16:18:45.753Z,8.33
2019-03-25T16:24:11.310Z,7.59
2019-03-25T16:29:36.577Z,7.97
2019-03-25T16:35:01.711Z,8.12
2019-03-25T16:40:26.697Z,7.67
2019-03-25T16:45:51.816Z,7.44
2019-03-25T16:51:16.218Z,7.47
2019-03-25T16:56:41.175Z,7.22
2019-03-25T17:02:07.215Z,6.83
2019-03-25T17:07:32.239Z,6.49
2019-03-25T17:12:56.826Z,6.50
2019-03-25T17:18:21.964Z,6.16
2019-03-25T17:23:46.780Z,5.87
2019-03-25T17:29:11.822Z,5.56
2019-03-25T17:34:36.822Z,5.49
2019-03-25T17:40:02.102Z,5.47
2019-03-25T17:45:27.582Z,5.24
2019-03-25T17:50:53.098Z,5.04
2019-03-25T17:56:17.512Z,4.89
2019-03-25T18:01:41.882Z,4.75
2019-03-25T18:07:07.102Z,4.73
2019-03-25T18:12:38.762Z,4.81
2019-03-25T18:17:57.291Z,4.83
2019-03-25T18:23:21.503Z,4.96
2019-03-25T18:28:47.023Z,4.99
2019-03-25T18:34:11.413Z,5.08
2019-03-25T18:39:36.756Z,5.30
2019-03-25T18:45:02.358Z,5.86
2019-03-25T18:50:27.366Z,6.10
2019-03-25T18:55:52.621Z,6.12
2019-03-25T19:01:17.685Z,6.18
2019-03-25T19:06:45.768Z,6.24
2019-03-25T19:12:11.063Z,6.18
2019-03-25T19:17:36.481Z,6.10
2019-03-25T19:23:01.743Z,6.01
2019-03-25T19:28:26.608Z,5.93
2019-03-25T19:33:51.216Z,5.72
2019-03-25T19:39:15.599Z,5.55
2019-03-25T19:44:39.939Z,5.47
2019-03-25T19:50:05.897Z,5.41
2019-03-25T19:55:30.951Z,5.44
2019-03-25T20:00:55.884Z,5.30
2019-03-25T20:06:26.072Z,5.24
2019-03-25T20:11:47.714Z,5.06
2019-03-25T20:17:12.128Z,4.95
2019-03-25T20:22:36.597Z,4.80
2019-03-25T20:28:01.681Z,4.86
2019-03-25T20:33:26.961Z,4.66
2019-03-25T20:38:52.367Z,4.50
2019-03-25T20:44:17.178Z,4.39
2019-03-25T20:49:42.305Z,4.27
2019-03-25T20:55:08.829Z,4.18
2019-03-25T21:00:48.052Z,4.12
2019-03-25T21:06:12.595Z,4.05
2019-03-25T21:11:37.337Z,4.06
2019-03-25T21:17:02.778Z,3.91
2019-03-25T21:22:27.837Z,3.76
2019-03-25T21:27:53.217Z,3.65
2019-03-25T21:33:18.311Z,3.58
2019-03-25T21:38:42.425Z,3.57
2019-03-25T21:44:06.914Z,3.52
2019-03-25T21:49:31.590Z,3.47
2019-03-25T21:54:57.979Z,3.39
2019-03-25T22:00:23.549Z,3.28
2019-03-25T22:05:47.858Z,3.32
2019-03-25T22:11:13.065Z,3.30
2019-03-25T22:16:38.329Z,3.16
2019-03-25T22:22:02.457Z,3.16
2019-03-25T22:27:27.956Z,3.09
2019-03-25T22:32:53.193Z,2.95
2019-03-25T22:38:18.180Z,2.77
2019-03-25T22:43:43.868Z,2.65
2019-03-25T22:49:09.178Z,2.62
2019-03-25T22:54:34.265Z,2.64
2019-03-25T22:59:59.760Z,2.54
2019-03-25T23:05:23.916Z,2.52
2019-03-25T23:10:48.009Z,2.39
2019-03-25T23:16:13.204Z,2.34
2019-03-25T23:21:38.399Z,2.37
2019-03-25T23:27:03.924Z,2.31
2019-03-25T23:32:28.306Z,2.25
2019-03-25T23:37:53.719Z,2.30
2019-03-25T23:43:18.442Z,2.60
2019-03-25T23:48:42.858Z,2.90
2019-03-25T23:54:14.862Z,3.22
2019-03-25T23:59:41.294Z,3.25
